UUEE METAR and TAF | Updated Today

UUEE METAR

Sheremetyevo International Airport

Observation time: 6 min. ago

UUEE 032200Z 25006MPS 9999 SCT014 M00/M03 Q0997 R24L/550530 R24C/550530 R24R/590526 NOSIG

Need help? Read our tutorial on how to read METARs or read the parsed version below.

Sheremetyevo International Airport (UUEE) METAR

  • Weather conditions on Fri, 03 Dec 2021 22:00:00 +0000 (6 min. ago):
  • Present conditions: Dry
  • Clouds: Scattered at 427 meters
  • Visibility: Greater than 10 km
  • Wind: 250 degrees at 6 knots
  • Temperature: 0 celsius
  • Dew point: -3 celsius
  • Pressure: 997 millibars
  • Remarks: None


Useful to know...

UUEE TAF

Sheremetyevo International Airport

TAF UUEE 031959Z 0321/0421 24006MPS 6000 BKN007 TXM00/0321Z TNM04/0420Z TEMPO 0403/0415 26010G16MPS 1800 SHSN BLSN SCT005 BKN012CB
Observation time: 2:07 hr. ago
Need help? Read our tutorial on how to read TAFs or read the parsed version below.

Parsed version of TAF for Sheremetyevo International Airport (UUEE)

  • From 03 December at 21:00 UTC, to day 04 of the month at 21:00 UTC
  • Clouds: Broken sky at 213 meters
  • Visibility: 6000 meters
  • Wind: 240 degrees at 6
  • Expected to arise temporarily, from 04 December at 03:00 UTC, to day 04 of the month at 15:00 UTC
  • Clouds: Scattered at 152 meters; broken sky at 366 meters, cumulonimbus
  • Visibility: 1800 meters
  • Wind: 260 degrees at 10
  • Other: Showers of snow; blowing snow